createdAt,value
2022-11-30T00:00:27.987Z,7.89
2022-11-30T00:01:00.105Z,7.89
2022-11-30T00:01:32.254Z,7.87
2022-11-30T00:02:04.465Z,7.87
2022-11-30T00:02:36.681Z,7.85
2022-11-30T00:03:08.963Z,7.87
2022-11-30T00:03:41.027Z,7.87
2022-11-30T00:04:13.725Z,7.90
2022-11-30T00:04:46.211Z,7.89
2022-11-30T00:05:18.154Z,7.89
2022-11-30T00:05:50.252Z,7.87
2022-11-30T00:06:22.410Z,7.87
2022-11-30T00:06:54.564Z,7.84
2022-11-30T00:07:26.785Z,7.81
2022-11-30T00:07:58.952Z,7.78
2022-11-30T00:08:31.035Z,7.75
2022-11-30T00:09:03.184Z,7.72
2022-11-30T00:09:35.273Z,7.74
2022-11-30T00:10:07.426Z,7.71
2022-11-30T00:10:39.660Z,7.72
2022-11-30T00:11:11.837Z,7.69
2022-11-30T00:11:44.094Z,7.71
2022-11-30T00:12:16.259Z,7.71
2022-11-30T00:12:48.471Z,7.67
2022-11-30T00:13:20.632Z,7.67
2022-11-30T00:13:52.778Z,7.71
2022-11-30T00:14:24.900Z,7.69
2022-11-30T00:14:57.028Z,7.72
2022-11-30T00:15:29.120Z,7.72
2022-11-30T00:16:01.390Z,7.71
2022-11-30T00:16:33.902Z,7.72
2022-11-30T00:17:06.069Z,7.69
2022-11-30T00:17:38.158Z,7.63
2022-11-30T00:18:10.275Z,7.66
2022-11-30T00:18:42.535Z,7.62
2022-11-30T00:19:14.655Z,7.62
2022-11-30T00:19:46.840Z,7.60
2022-11-30T00:20:19.015Z,7.62
2022-11-30T00:20:51.260Z,7.60
2022-11-30T00:21:23.476Z,7.60
2022-11-30T00:21:55.640Z,7.60
2022-11-30T00:22:27.764Z,7.60
2022-11-30T00:23:00.106Z,7.58
2022-11-30T00:23:32.342Z,7.56
2022-11-30T00:24:04.556Z,7.58
2022-11-30T00:24:36.704Z,7.56
2022-11-30T00:25:08.878Z,7.56
2022-11-30T00:25:41.032Z,7.56
2022-11-30T00:26:13.140Z,7.55
2022-11-30T00:26:45.359Z,7.55
2022-11-30T00:27:17.472Z,7.53
2022-11-30T00:27:49.738Z,7.53
2022-11-30T00:28:21.917Z,7.52
2022-11-30T00:28:54.017Z,7.53
2022-11-30T00:29:26.156Z,7.55
2022-11-30T00:29:58.278Z,7.56
2022-11-30T00:30:30.449Z,7.56
2022-11-30T00:31:02.577Z,7.56
2022-11-30T00:31:34.651Z,7.55
2022-11-30T00:32:06.874Z,7.53
2022-11-30T00:32:39.147Z,7.52
2022-11-30T00:33:11.374Z,7.56
2022-11-30T00:33:43.516Z,7.53
2022-11-30T00:34:15.732Z,7.55
2022-11-30T00:34:48.150Z,7.55
2022-11-30T00:35:20.082Z,7.55
2022-11-30T00:35:52.219Z,7.56
2022-11-30T00:36:24.356Z,7.55
2022-11-30T00:36:56.431Z,7.52
2022-11-30T00:37:28.576Z,7.50
2022-11-30T00:38:00.737Z,7.52
2022-11-30T00:38:32.923Z,7.52
2022-11-30T00:39:05.081Z,7.47
2022-11-30T00:39:37.255Z,7.49
2022-11-30T00:40:09.399Z,7.50
2022-11-30T00:40:41.610Z,7.50
2022-11-30T00:41:13.792Z,7.52
2022-11-30T00:41:46.013Z,7.52
2022-11-30T00:42:18.330Z,7.50
2022-11-30T00:42:50.439Z,7.53
2022-11-30T00:43:22.553Z,7.53
2022-11-30T00:43:54.739Z,7.52
2022-11-30T00:44:26.882Z,7.52
2022-11-30T00:44:59.034Z,7.52
2022-11-30T00:45:31.189Z,7.49
2022-11-30T00:46:03.442Z,7.50
2022-11-30T00:46:35.609Z,7.47
2022-11-30T00:47:07.699Z,7.44
2022-11-30T00:47:39.895Z,7.42
2022-11-30T00:48:12.114Z,7.44
2022-11-30T00:48:44.264Z,7.41
2022-11-30T00:49:16.410Z,7.38
2022-11-30T00:49:48.510Z,7.35
2022-11-30T00:50:20.649Z,7.37
2022-11-30T00:50:52.724Z,7.35
2022-11-30T00:51:24.872Z,7.34
2022-11-30T00:51:57.115Z,7.31
2022-11-30T00:52:29.311Z,7.35
2022-11-30T00:53:01.422Z,7.34
2022-11-30T00:53:33.623Z,7.34
2022-11-30T00:54:05.820Z,7.35
2022-11-30T00:54:37.963Z,7.34
2022-11-30T00:55:10.096Z,7.35
2022-11-30T00:55:42.208Z,7.35
2022-11-30T00:56:14.295Z,7.35
2022-11-30T00:56:46.460Z,7.37
2022-11-30T00:57:18.525Z,7.37
2022-11-30T00:57:50.660Z,7.38
2022-11-30T00:58:22.759Z,7.38
2022-11-30T00:58:54.913Z,7.41
2022-11-30T00:59:27.014Z,7.38
2022-11-30T00:59:59.252Z,7.40
2022-11-30T01:00:31.601Z,7.40
2022-11-30T01:01:03.828Z,7.38
2022-11-30T01:01:35.996Z,7.40
2022-11-30T01:02:08.180Z,7.41
2022-11-30T01:02:40.316Z,7.40
2022-11-30T01:03:12.440Z,7.42
2022-11-30T01:03:44.638Z,7.44
2022-11-30T01:04:16.799Z,7.47
2022-11-30T01:04:49.184Z,7.44
2022-11-30T01:05:21.158Z,7.45
2022-11-30T01:05:53.282Z,7.45
2022-11-30T01:06:25.472Z,7.47
2022-11-30T01:06:57.603Z,7.47
2022-11-30T01:07:29.759Z,7.44
2022-11-30T01:08:01.811Z,7.44
2022-11-30T01:08:33.917Z,7.42
2022-11-30T01:09:06.071Z,7.42
2022-11-30T01:09:38.243Z,7.42
2022-11-30T01:10:10.557Z,7.44
2022-11-30T01:10:42.685Z,7.44
2022-11-30T01:11:14.768Z,7.44
2022-11-30T01:11:46.972Z,7.45
2022-11-30T01:12:19.077Z,7.47
2022-11-30T01:12:51.207Z,7.49
2022-11-30T01:13:23.330Z,7.47
2022-11-30T01:13:55.488Z,7.47
2022-11-30T01:14:27.695Z,7.49
2022-11-30T01:14:59.888Z,7.49
2022-11-30T01:15:32.070Z,7.47
2022-11-30T01:16:04.206Z,7.49
2022-11-30T01:16:36.393Z,7.50
2022-11-30T01:17:08.558Z,7.50
2022-11-30T01:17:40.685Z,7.49
2022-11-30T01:18:12.798Z,7.52
2022-11-30T01:18:44.875Z,7.52
2022-11-30T01:19:17.026Z,7.56
2022-11-30T01:19:49.431Z,7.53
2022-11-30T01:20:21.640Z,7.56
2022-11-30T01:20:53.752Z,7.53
2022-11-30T01:21:25.861Z,7.50
2022-11-30T01:21:58.063Z,7.52
2022-11-30T01:22:30.259Z,7.50
2022-11-30T01:23:02.433Z,7.53
2022-11-30T01:23:34.646Z,7.55
2022-11-30T01:24:06.744Z,7.53
2022-11-30T01:24:38.884Z,7.53
2022-11-30T01:25:11.012Z,7.52
2022-11-30T01:25:43.162Z,7.55
2022-11-30T01:26:15.334Z,7.52
2022-11-30T01:26:47.582Z,7.52
2022-11-30T01:27:19.749Z,7.52
2022-11-30T01:27:51.851Z,7.50
2022-11-30T01:28:24.024Z,7.49
2022-11-30T01:28:56.295Z,7.49
2022-11-30T01:29:28.402Z,7.49
2022-11-30T01:30:00.653Z,7.49
2022-11-30T01:30:33.063Z,7.45
2022-11-30T01:31:05.231Z,7.47
2022-11-30T01:31:37.297Z,7.49
2022-11-30T01:32:09.361Z,7.49
2022-11-30T01:32:41.592Z,7.49
2022-11-30T01:33:13.756Z,7.49
2022-11-30T01:33:45.849Z,7.47
2022-11-30T01:34:17.980Z,7.49
2022-11-30T01:34:50.112Z,7.49
2022-11-30T01:35:22.233Z,7.49
2022-11-30T01:35:54.532Z,7.49
2022-11-30T01:36:27.396Z,7.47
2022-11-30T01:36:59.630Z,7.45
2022-11-30T01:37:31.781Z,7.49
2022-11-30T01:38:03.969Z,7.47
2022-11-30T01:38:36.153Z,7.47
2022-11-30T01:39:08.263Z,7.45
2022-11-30T01:39:40.434Z,7.47
2022-11-30T01:40:12.576Z,7.45
2022-11-30T01:40:44.685Z,7.47
2022-11-30T01:41:16.822Z,7.42
2022-11-30T01:41:48.983Z,7.47
2022-11-30T01:42:21.069Z,7.47
2022-11-30T01:42:53.168Z,7.49
2022-11-30T01:43:25.321Z,7.49
2022-11-30T01:43:57.482Z,7.49
2022-11-30T01:44:29.695Z,7.47
2022-11-30T01:45:01.844Z,7.50
2022-11-30T01:45:33.959Z,7.45
2022-11-30T01:46:07.238Z,7.44
2022-11-30T01:46:39.322Z,7.40
2022-11-30T01:47:11.436Z,7.37
2022-11-30T01:47:43.636Z,7.34
2022-11-30T01:48:15.745Z,7.35
2022-11-30T01:48:47.889Z,7.34
2022-11-30T01:49:19.963Z,7.37
2022-11-30T01:49:52.124Z,7.35
2022-11-30T01:50:24.247Z,7.35
2022-11-30T01:50:56.394Z,7.37
2022-11-30T01:51:28.552Z,7.37
2022-11-30T01:52:00.801Z,7.38
2022-11-30T01:52:32.981Z,7.35
2022-11-30T01:53:05.179Z,7.37
2022-11-30T01:53:37.334Z,7.35
2022-11-30T01:54:09.508Z,7.37
2022-11-30T01:54:41.665Z,7.40
2022-11-30T01:55:13.941Z,7.40
2022-11-30T01:55:46.095Z,7.41
2022-11-30T01:56:18.250Z,7.40
2022-11-30T01:56:50.399Z,7.38
2022-11-30T01:57:22.587Z,7.38
2022-11-30T01:57:54.723Z,7.41
2022-11-30T01:58:26.840Z,7.41
2022-11-30T01:58:59.000Z,7.41
2022-11-30T01:59:31.132Z,7.41
2022-11-30T02:00:03.276Z,7.42
2022-11-30T02:00:35.373Z,7.44
2022-11-30T02:01:07.568Z,7.45
2022-11-30T02:01:39.813Z,7.42
2022-11-30T02:02:11.973Z,7.41
2022-11-30T02:02:44.211Z,7.38
2022-11-30T02:03:16.382Z,7.38
2022-11-30T02:03:48.603Z,7.38
2022-11-30T02:04:20.784Z,7.41
2022-11-30T02:04:52.924Z,7.40
2022-11-30T02:05:25.072Z,7.41
2022-11-30T02:05:57.249Z,7.40
2022-11-30T02:06:29.359Z,7.41
2022-11-30T02:07:01.532Z,7.42
2022-11-30T02:07:33.797Z,7.44
2022-11-30T02:08:06.194Z,7.44
2022-11-30T02:08:38.261Z,7.42
2022-11-30T02:09:10.355Z,7.41
2022-11-30T02:09:42.734Z,7.42
2022-11-30T02:10:14.826Z,7.40
2022-11-30T02:10:46.979Z,7.40
2022-11-30T02:11:19.165Z,7.40
2022-11-30T02:11:51.301Z,7.37
2022-11-30T02:12:23.494Z,7.35
2022-11-30T02:12:55.657Z,7.34
2022-11-30T02:13:27.758Z,7.34
2022-11-30T02:13:59.914Z,7.34
2022-11-30T02:14:32.077Z,7.32
2022-11-30T02:15:04.251Z,7.35
2022-11-30T02:15:36.391Z,7.35
2022-11-30T02:16:08.585Z,7.35
2022-11-30T02:16:40.661Z,7.37
2022-11-30T02:17:12.780Z,7.37
2022-11-30T02:17:44.966Z,7.35
2022-11-30T02:18:17.156Z,7.37
2022-11-30T02:18:49.293Z,7.38
2022-11-30T02:19:21.461Z,7.38
2022-11-30T02:19:53.659Z,7.37
2022-11-30T02:20:25.814Z,7.35
2022-11-30T02:20:58.031Z,7.35
2022-11-30T02:21:30.213Z,7.37
2022-11-30T02:22:02.352Z,7.37
2022-11-30T02:22:34.496Z,7.35
2022-11-30T02:23:06.666Z,7.34
2022-11-30T02:23:41.323Z,7.34
2022-11-30T02:24:10.918Z,7.34
2022-11-30T02:24:43.088Z,7.31
2022-11-30T02:25:15.275Z,7.27
2022-11-30T02:25:47.520Z,7.27
2022-11-30T02:26:19.680Z,7.26
2022-11-30T02:26:51.850Z,7.27
2022-11-30T02:27:24.711Z,7.29
2022-11-30T02:27:56.864Z,7.27
2022-11-30T02:28:29.064Z,7.29
2022-11-30T02:29:01.202Z,7.29
2022-11-30T02:29:33.404Z,7.31
2022-11-30T02:30:05.573Z,7.32
2022-11-30T02:30:37.917Z,7.32
2022-11-30T02:31:09.992Z,7.32
2022-11-30T02:31:42.099Z,7.31
2022-11-30T02:32:14.242Z,7.34
2022-11-30T02:32:46.523Z,7.32
2022-11-30T02:33:18.741Z,7.34
2022-11-30T02:33:50.931Z,7.32
2022-11-30T02:34:23.118Z,7.31
2022-11-30T02:34:55.273Z,7.29
2022-11-30T02:35:27.410Z,7.27
2022-11-30T02:36:00.214Z,7.31
2022-11-30T02:36:32.450Z,7.31
2022-11-30T02:37:04.664Z,7.31
2022-11-30T02:37:36.779Z,7.27
2022-11-30T02:38:08.970Z,7.29
2022-11-30T02:38:42.499Z,7.29
2022-11-30T02:39:15.220Z,7.29
2022-11-30T02:39:47.372Z,7.27
2022-11-30T02:40:19.521Z,7.26
2022-11-30T02:40:51.737Z,7.24
2022-11-30T02:41:24.227Z,7.23
2022-11-30T02:41:56.370Z,7.23
2022-11-30T02:42:28.566Z,7.24
2022-11-30T02:43:01.161Z,7.26
2022-11-30T02:43:33.339Z,7.23
2022-11-30T02:44:06.279Z,7.23
2022-11-30T02:44:38.473Z,7.22
2022-11-30T02:45:10.599Z,7.23
2022-11-30T02:45:42.830Z,7.22
2022-11-30T02:46:15.023Z,7.22
2022-11-30T02:46:47.164Z,7.23
2022-11-30T02:47:20.216Z,7.23
2022-11-30T02:47:52.386Z,7.23
2022-11-30T02:48:24.525Z,7.23
2022-11-30T02:48:56.650Z,7.23
2022-11-30T02:49:28.790Z,7.19
2022-11-30T02:50:00.940Z,7.20
2022-11-30T02:50:33.049Z,7.22
2022-11-30T02:51:05.182Z,7.20
2022-11-30T02:51:37.358Z,7.20
2022-11-30T02:52:09.529Z,7.22
2022-11-30T02:52:41.671Z,7.20
2022-11-30T02:53:13.837Z,7.19
2022-11-30T02:53:45.955Z,7.20
2022-11-30T02:54:18.053Z,7.22
2022-11-30T02:54:50.281Z,7.23
2022-11-30T02:55:22.296Z,7.23
2022-11-30T02:55:54.469Z,7.26
2022-11-30T02:56:26.661Z,7.26
2022-11-30T02:56:58.796Z,7.27
2022-11-30T02:57:30.972Z,7.31
2022-11-30T02:58:03.192Z,7.34
2022-11-30T02:58:35.394Z,7.32
2022-11-30T02:59:07.593Z,7.37
2022-11-30T02:59:39.828Z,7.37
2022-11-30T03:00:11.995Z,7.37
2022-11-30T03:00:44.782Z,7.38
2022-11-30T03:01:16.968Z,7.40
2022-11-30T03:01:49.128Z,7.38
2022-11-30T03:02:21.695Z,7.41
2022-11-30T03:02:53.840Z,7.40
2022-11-30T03:03:25.974Z,7.42
2022-11-30T03:03:58.148Z,7.41
2022-11-30T03:04:30.321Z,7.41
2022-11-30T03:05:02.570Z,7.41
2022-11-30T03:05:34.699Z,7.42
2022-11-30T03:06:06.845Z,7.44
2022-11-30T03:06:39.010Z,7.41
2022-11-30T03:07:11.173Z,7.44
2022-11-30T03:07:43.325Z,7.44
2022-11-30T03:08:15.437Z,7.44
2022-11-30T03:08:47.660Z,7.44
2022-11-30T03:09:19.809Z,7.40
2022-11-30T03:09:52.063Z,7.40
2022-11-30T03:10:24.194Z,7.38
2022-11-30T03:10:56.302Z,7.37
2022-11-30T03:11:28.420Z,7.37
2022-11-30T03:12:00.530Z,7.38
2022-11-30T03:12:32.724Z,7.37
2022-11-30T03:13:04.913Z,7.37
2022-11-30T03:13:37.071Z,7.38
2022-11-30T03:14:09.300Z,7.42
2022-11-30T03:14:41.524Z,7.41
2022-11-30T03:15:13.734Z,7.42
2022-11-30T03:15:45.912Z,7.41
2022-11-30T03:16:18.069Z,7.41
2022-11-30T03:16:51.022Z,7.40
2022-11-30T03:17:23.205Z,7.40
2022-11-30T03:17:55.384Z,7.41
2022-11-30T03:18:27.601Z,7.42
2022-11-30T03:18:59.802Z,7.45
2022-11-30T03:19:31.982Z,7.41
2022-11-30T03:20:04.230Z,7.42
2022-11-30T03:20:36.388Z,7.45
2022-11-30T03:21:08.472Z,7.44
2022-11-30T03:21:40.665Z,7.47
2022-11-30T03:22:12.815Z,7.47
2022-11-30T03:22:45.724Z,7.47
2022-11-30T03:23:17.891Z,7.45
2022-11-30T03:23:50.119Z,7.47
2022-11-30T03:24:22.270Z,7.49
2022-11-30T03:24:54.411Z,7.47
2022-11-30T03:25:26.524Z,7.49
2022-11-30T03:25:59.740Z,7.50
2022-11-30T03:26:31.854Z,7.47
2022-11-30T03:27:04.119Z,7.47
2022-11-30T03:27:36.350Z,7.45
2022-11-30T03:28:08.523Z,7.45
2022-11-30T03:28:40.656Z,7.45
2022-11-30T03:29:12.772Z,7.45
2022-11-30T03:29:44.877Z,7.42
2022-11-30T03:30:17.034Z,7.42
2022-11-30T03:30:49.225Z,7.42
2022-11-30T03:31:21.530Z,7.42
2022-11-30T03:31:53.666Z,7.42
2022-11-30T03:32:25.798Z,7.44
2022-11-30T03:32:57.968Z,7.41
2022-11-30T03:33:30.747Z,7.45
2022-11-30T03:34:02.925Z,7.42
2022-11-30T03:34:35.135Z,7.45
2022-11-30T03:35:07.374Z,7.44
2022-11-30T03:35:39.508Z,7.44
2022-11-30T03:36:11.623Z,7.42
2022-11-30T03:36:43.784Z,7.42
2022-11-30T03:37:15.951Z,7.41
2022-11-30T03:37:48.156Z,7.40
2022-11-30T03:38:20.282Z,7.35
2022-11-30T03:38:52.420Z,7.32
2022-11-30T03:39:24.648Z,7.31
2022-11-30T03:39:58.409Z,7.32
2022-11-30T03:40:28.995Z,7.31
2022-11-30T03:41:01.175Z,7.34
2022-11-30T03:41:33.374Z,7.31
2022-11-30T03:42:05.560Z,7.32
2022-11-30T03:42:37.703Z,7.34
2022-11-30T03:43:09.997Z,7.35
2022-11-30T03:43:42.194Z,7.34
2022-11-30T03:44:14.474Z,7.34
2022-11-30T03:44:46.939Z,7.35
2022-11-30T03:45:18.825Z,7.34
2022-11-30T03:45:51.029Z,7.34
2022-11-30T03:46:23.236Z,7.35
2022-11-30T03:46:55.352Z,7.34
2022-11-30T03:47:27.537Z,7.34
2022-11-30T03:47:59.719Z,7.34
2022-11-30T03:48:31.929Z,7.34
2022-11-30T03:49:04.093Z,7.34
2022-11-30T03:49:36.395Z,7.35
2022-11-30T03:50:08.583Z,7.32
2022-11-30T03:50:40.790Z,7.31
2022-11-30T03:51:12.942Z,7.29
2022-11-30T03:51:45.141Z,7.31
2022-11-30T03:52:17.254Z,7.31
2022-11-30T03:52:49.385Z,7.34
2022-11-30T03:53:21.547Z,7.32
2022-11-30T03:53:53.797Z,7.34
2022-11-30T03:54:25.983Z,7.34
2022-11-30T03:54:58.167Z,7.34
2022-11-30T03:55:30.323Z,7.35
2022-11-30T03:56:02.500Z,7.32
2022-11-30T03:56:34.676Z,7.34
2022-11-30T03:57:06.921Z,7.35
2022-11-30T03:57:39.113Z,7.37
2022-11-30T03:58:11.730Z,7.40
2022-11-30T03:58:43.939Z,7.38
2022-11-30T03:59:16.877Z,7.40
2022-11-30T03:59:49.162Z,7.38
2022-11-30T04:00:22.232Z,7.38
2022-11-30T04:00:54.423Z,7.37
2022-11-30T04:01:27.572Z,7.37
2022-11-30T04:01:59.745Z,7.35
2022-11-30T04:02:32.044Z,7.38
2022-11-30T04:03:04.140Z,7.38
2022-11-30T04:03:36.209Z,7.38
2022-11-30T04:04:08.318Z,7.38
2022-11-30T04:04:40.494Z,7.35
2022-11-30T04:05:12.659Z,7.37
2022-11-30T04:05:44.842Z,7.38
2022-11-30T04:06:16.951Z,7.38
2022-11-30T04:06:49.100Z,7.38
2022-11-30T04:07:21.311Z,7.38
2022-11-30T04:07:53.474Z,7.41
2022-11-30T04:08:26.542Z,7.41
2022-11-30T04:08:58.747Z,7.41
2022-11-30T04:09:30.912Z,7.41
2022-11-30T04:10:08.071Z,7.42
2022-11-30T04:10:35.188Z,7.40
2022-11-30T04:11:08.239Z,7.41
2022-11-30T04:11:40.367Z,7.38
2022-11-30T04:12:13.233Z,7.40
2022-11-30T04:12:45.475Z,7.40
2022-11-30T04:13:18.293Z,7.41
2022-11-30T04:13:50.424Z,7.41
2022-11-30T04:14:22.540Z,7.41
2022-11-30T04:14:54.750Z,7.41
2022-11-30T04:15:26.936Z,7.41
2022-11-30T04:15:59.233Z,7.41
2022-11-30T04:16:31.365Z,7.41
2022-11-30T04:17:03.433Z,7.38
2022-11-30T04:17:35.584Z,7.41
2022-11-30T04:18:07.755Z,7.40
2022-11-30T04:18:39.867Z,7.37
2022-11-30T04:19:12.000Z,7.37
2022-11-30T04:19:44.774Z,7.40
2022-11-30T04:20:18.550Z,7.37
2022-11-30T04:20:50.697Z,7.38
2022-11-30T04:21:22.848Z,7.37
2022-11-30T04:21:55.034Z,7.38
2022-11-30T04:22:27.257Z,7.40
2022-11-30T04:22:59.420Z,7.40
2022-11-30T04:23:31.554Z,7.41
2022-11-30T04:24:03.761Z,7.42
2022-11-30T04:24:35.916Z,7.41
2022-11-30T04:25:08.058Z,7.40
2022-11-30T04:25:40.282Z,7.40
2022-11-30T04:26:13.294Z,7.40
2022-11-30T04:26:45.471Z,7.38
2022-11-30T04:27:17.688Z,7.40
2022-11-30T04:27:50.008Z,7.41
2022-11-30T04:28:22.179Z,7.40
2022-11-30T04:28:55.266Z,7.38
2022-11-30T04:29:27.478Z,7.41
2022-11-30T04:29:59.701Z,7.38
2022-11-30T04:30:31.921Z,7.40
2022-11-30T04:31:04.786Z,7.37
2022-11-30T04:31:36.926Z,7.38
2022-11-30T04:32:09.073Z,7.37
2022-11-30T04:32:41.276Z,7.38
2022-11-30T04:33:13.508Z,7.38
2022-11-30T04:33:45.773Z,7.40
2022-11-30T04:34:17.940Z,7.41
2022-11-30T04:34:50.295Z,7.41
2022-11-30T04:35:22.314Z,7.38
2022-11-30T04:35:54.466Z,7.38
2022-11-30T04:36:26.615Z,7.40
2022-11-30T04:37:00.398Z,7.40
2022-11-30T04:37:30.880Z,7.40
2022-11-30T04:38:03.005Z,7.40
2022-11-30T04:38:35.738Z,7.40
2022-11-30T04:39:07.894Z,7.41
2022-11-30T04:39:40.111Z,7.41
2022-11-30T04:40:12.279Z,7.38
2022-11-30T04:40:45.247Z,7.37
2022-11-30T04:41:17.359Z,7.37
2022-11-30T04:41:49.578Z,7.37
2022-11-30T04:42:21.781Z,7.37
2022-11-30T04:42:54.759Z,7.37
2022-11-30T04:43:26.892Z,7.37
2022-11-30T04:43:59.048Z,7.34
2022-11-30T04:44:31.149Z,7.35
2022-11-30T04:45:03.359Z,7.34
2022-11-30T04:45:35.830Z,7.34
2022-11-30T04:46:07.709Z,7.34
2022-11-30T04:46:39.856Z,7.34
2022-11-30T04:47:11.892Z,7.35
2022-11-30T04:47:44.065Z,7.35
2022-11-30T04:48:16.184Z,7.34
2022-11-30T04:48:48.309Z,7.37
2022-11-30T04:49:20.432Z,7.35
2022-11-30T04:49:52.545Z,7.37
2022-11-30T04:50:24.663Z,7.35
2022-11-30T04:50:56.836Z,7.37
2022-11-30T04:51:29.003Z,7.37
2022-11-30T04:52:01.178Z,7.37
2022-11-30T04:52:33.334Z,7.37
2022-11-30T04:53:05.443Z,7.38
2022-11-30T04:53:37.659Z,7.38
2022-11-30T04:54:09.822Z,7.40
2022-11-30T04:54:42.741Z,7.38
2022-11-30T04:55:14.856Z,7.40
2022-11-30T04:55:47.028Z,7.37
2022-11-30T04:56:19.195Z,7.40
2022-11-30T04:56:51.353Z,7.38
2022-11-30T04:57:23.453Z,7.41
2022-11-30T04:57:55.759Z,7.40
2022-11-30T04:58:28.797Z,7.40
2022-11-30T04:59:00.955Z,7.41
2022-11-30T04:59:33.056Z,7.42
2022-11-30T05:00:05.187Z,7.42
2022-11-30T05:00:37.348Z,7.42
2022-11-30T05:01:09.509Z,7.41
2022-11-30T05:01:41.757Z,7.42
2022-11-30T05:02:13.845Z,7.42
2022-11-30T05:02:52.186Z,7.42
2022-11-30T05:03:18.193Z,7.42
2022-11-30T05:03:50.356Z,7.41
2022-11-30T05:04:22.544Z,7.42
2022-11-30T05:04:54.746Z,7.44
2022-11-30T05:05:26.840Z,7.44
2022-11-30T05:05:58.974Z,7.42
2022-11-30T05:06:31.141Z,7.42
2022-11-30T05:07:03.312Z,7.42
2022-11-30T05:07:35.458Z,7.41
2022-11-30T05:08:07.631Z,7.42
2022-11-30T05:08:39.777Z,7.42
2022-11-30T05:09:11.895Z,7.42
2022-11-30T05:09:44.052Z,7.41
2022-11-30T05:10:16.219Z,7.42
2022-11-30T05:10:52.833Z,7.42
2022-11-30T05:11:20.574Z,7.42
2022-11-30T05:11:52.765Z,7.40
2022-11-30T05:12:24.937Z,7.44
2022-11-30T05:12:57.084Z,7.42
2022-11-30T05:13:29.315Z,7.42
2022-11-30T05:14:01.460Z,7.42
2022-11-30T05:14:41.211Z,7.42
2022-11-30T05:15:13.631Z,7.41
2022-11-30T05:15:45.841Z,7.44
2022-11-30T05:16:17.977Z,7.42
2022-11-30T05:16:50.119Z,7.44
2022-11-30T05:17:22.248Z,7.42
2022-11-30T05:17:54.426Z,7.40
2022-11-30T05:18:26.567Z,7.40
2022-11-30T05:18:58.718Z,7.38
2022-11-30T05:19:30.820Z,7.38
2022-11-30T05:20:02.946Z,7.38
2022-11-30T05:20:35.098Z,7.37
2022-11-30T05:21:07.220Z,7.37
2022-11-30T05:21:42.689Z,7.38
2022-11-30T05:22:11.538Z,7.38
2022-11-30T05:22:43.690Z,7.38
2022-11-30T05:23:15.761Z,7.41
2022-11-30T05:23:47.874Z,7.41
2022-11-30T05:24:19.953Z,7.41
2022-11-30T05:24:52.100Z,7.41
2022-11-30T05:25:24.257Z,7.41
2022-11-30T05:25:56.365Z,7.41
2022-11-30T05:26:28.468Z,7.42
2022-11-30T05:27:00.594Z,7.42
2022-11-30T05:27:32.744Z,7.42
2022-11-30T05:28:04.920Z,7.42
2022-11-30T05:28:37.059Z,7.41
2022-11-30T05:29:09.184Z,7.44
2022-11-30T05:29:41.281Z,7.44
2022-11-30T05:30:13.415Z,7.45
2022-11-30T05:30:45.566Z,7.47
2022-11-30T05:31:17.670Z,7.47
2022-11-30T05:31:49.795Z,7.47
2022-11-30T05:32:21.969Z,7.45
2022-11-30T05:32:54.094Z,7.47
2022-11-30T05:33:26.208Z,7.45
2022-11-30T05:33:58.320Z,7.44
2022-11-30T05:34:30.442Z,7.45
2022-11-30T05:35:02.588Z,7.45
2022-11-30T05:35:34.719Z,7.49
2022-11-30T05:36:10.687Z,7.45
2022-11-30T05:36:38.982Z,7.45
2022-11-30T05:37:11.124Z,7.45
2022-11-30T05:37:43.293Z,7.44
2022-11-30T05:38:15.382Z,7.44
2022-11-30T05:38:47.498Z,7.44
2022-11-30T05:39:19.629Z,7.44
2022-11-30T05:39:51.827Z,7.44
2022-11-30T05:40:23.966Z,7.44
2022-11-30T05:40:56.099Z,7.42
2022-11-30T05:41:28.258Z,7.42
2022-11-30T05:42:00.357Z,7.44
2022-11-30T05:42:32.542Z,7.44
2022-11-30T05:43:04.727Z,7.41
2022-11-30T05:43:36.880Z,7.42
2022-11-30T05:44:08.987Z,7.40
2022-11-30T05:44:41.154Z,7.41
2022-11-30T05:45:13.224Z,7.42
2022-11-30T05:45:45.396Z,7.42
2022-11-30T05:46:17.554Z,7.40
2022-11-30T05:46:49.702Z,7.41
2022-11-30T05:47:21.837Z,7.42
2022-11-30T05:47:53.953Z,7.44
2022-11-30T05:48:26.027Z,7.44
2022-11-30T05:48:58.188Z,7.44
2022-11-30T05:49:30.344Z,7.41
2022-11-30T05:50:02.485Z,7.41
2022-11-30T05:50:34.651Z,7.37
2022-11-30T05:51:06.726Z,7.40
2022-11-30T05:51:38.846Z,7.40
2022-11-30T05:52:11.024Z,7.42
2022-11-30T05:52:43.160Z,7.40
2022-11-30T05:53:15.278Z,7.40
2022-11-30T05:53:47.404Z,7.38
2022-11-30T05:54:19.572Z,7.40
2022-11-30T05:54:51.672Z,7.40
2022-11-30T05:55:23.808Z,7.40
2022-11-30T05:55:55.916Z,7.38
2022-11-30T05:56:28.103Z,7.38
2022-11-30T05:57:00.196Z,7.38
2022-11-30T05:57:32.291Z,7.41
2022-11-30T05:58:04.429Z,7.41
2022-11-30T05:58:36.569Z,7.40
2022-11-30T05:59:08.765Z,7.40
2022-11-30T05:59:40.840Z,7.41
2022-11-30T06:00:12.999Z,7.41
2022-11-30T06:00:45.124Z,7.41
2022-11-30T06:01:17.276Z,7.40
2022-11-30T06:01:49.557Z,7.40
2022-11-30T06:02:26.577Z,7.38
2022-11-30T06:02:53.718Z,7.40
2022-11-30T06:03:25.956Z,7.37
2022-11-30T06:03:57.992Z,7.35
2022-11-30T06:04:30.105Z,7.37
2022-11-30T06:05:02.310Z,7.34
2022-11-30T06:05:34.472Z,7.32
2022-11-30T06:06:06.707Z,7.32
2022-11-30T06:06:38.850Z,7.32
2022-11-30T06:07:10.995Z,7.34
2022-11-30T06:07:43.181Z,7.29
2022-11-30T06:08:15.279Z,7.32
2022-11-30T06:08:47.376Z,7.32
2022-11-30T06:09:19.502Z,7.34
2022-11-30T06:09:51.659Z,7.34
2022-11-30T06:10:23.746Z,7.35
2022-11-30T06:10:55.968Z,7.37
2022-11-30T06:11:28.148Z,7.38
2022-11-30T06:12:00.297Z,7.40
2022-11-30T06:12:32.437Z,7.40
2022-11-30T06:13:04.631Z,7.41
2022-11-30T06:13:36.788Z,7.40
2022-11-30T06:14:09.811Z,7.42
2022-11-30T06:14:41.971Z,7.41
2022-11-30T06:15:14.062Z,7.42
2022-11-30T06:15:46.139Z,7.42
2022-11-30T06:16:18.255Z,7.44
2022-11-30T06:16:50.455Z,7.45
2022-11-30T06:17:22.547Z,7.42
2022-11-30T06:17:54.719Z,7.45
2022-11-30T06:18:26.894Z,7.44
2022-11-30T06:18:59.097Z,7.45
2022-11-30T06:19:31.252Z,7.45
2022-11-30T06:20:03.434Z,7.45
2022-11-30T06:20:35.590Z,7.44
2022-11-30T06:21:08.439Z,7.44
2022-11-30T06:21:39.914Z,7.42
2022-11-30T06:22:12.027Z,7.41
2022-11-30T06:22:44.322Z,7.40
2022-11-30T06:23:16.537Z,7.38
2022-11-30T06:23:48.641Z,7.35
2022-11-30T06:24:20.959Z,7.35
2022-11-30T06:24:53.229Z,7.32
2022-11-30T06:25:25.367Z,7.32
2022-11-30T06:25:58.497Z,7.32
2022-11-30T06:26:30.593Z,7.35
2022-11-30T06:27:02.784Z,7.34
2022-11-30T06:27:34.922Z,7.37
2022-11-30T06:28:07.060Z,7.37
2022-11-30T06:28:40.047Z,7.35
2022-11-30T06:29:11.503Z,7.34
2022-11-30T06:29:43.619Z,7.32
2022-11-30T06:30:15.741Z,7.32
2022-11-30T06:30:47.882Z,7.32
2022-11-30T06:31:20.112Z,7.31
2022-11-30T06:31:52.306Z,7.32
2022-11-30T06:32:24.368Z,7.31
2022-11-30T06:32:56.521Z,7.32
2022-11-30T06:33:28.666Z,7.34
2022-11-30T06:34:00.796Z,7.34
2022-11-30T06:34:32.939Z,7.35
2022-11-30T06:35:05.072Z,7.34
2022-11-30T06:35:37.252Z,7.34
2022-11-30T06:36:09.380Z,7.34
2022-11-30T06:36:41.529Z,7.35
2022-11-30T06:37:13.670Z,7.37
2022-11-30T06:37:45.812Z,7.37
2022-11-30T06:38:17.957Z,7.38
2022-11-30T06:38:50.044Z,7.37
2022-11-30T06:39:43.080Z,7.38
2022-11-30T06:40:09.479Z,7.40
2022-11-30T06:40:26.465Z,7.41
2022-11-30T06:40:58.555Z,7.41
2022-11-30T06:41:30.659Z,7.41
2022-11-30T06:42:02.833Z,7.41
2022-11-30T06:42:34.929Z,7.41
2022-11-30T06:43:07.017Z,7.42
2022-11-30T06:43:39.145Z,7.42
2022-11-30T06:44:11.243Z,7.42
2022-11-30T06:44:43.389Z,7.42
2022-11-30T06:45:15.526Z,7.42
2022-11-30T06:45:47.735Z,7.42
2022-11-30T06:46:19.750Z,7.42
2022-11-30T06:46:51.989Z,7.44
2022-11-30T06:47:24.171Z,7.44
2022-11-30T06:47:56.277Z,7.44
2022-11-30T06:48:28.363Z,7.44
2022-11-30T06:49:00.495Z,7.45
2022-11-30T06:49:32.610Z,7.45
2022-11-30T06:50:04.723Z,7.44
2022-11-30T06:50:36.885Z,7.44
2022-11-30T06:51:09.102Z,7.47
2022-11-30T06:51:41.186Z,7.47
2022-11-30T06:52:13.379Z,7.45
2022-11-30T06:52:45.411Z,7.42
2022-11-30T06:53:17.557Z,7.45
2022-11-30T06:53:49.696Z,7.47
2022-11-30T06:54:21.849Z,7.41
2022-11-30T06:54:54.013Z,7.38
2022-11-30T06:55:26.178Z,7.37
2022-11-30T06:55:58.331Z,7.35
2022-11-30T06:56:30.484Z,7.37
2022-11-30T06:57:02.635Z,7.35
2022-11-30T06:57:34.773Z,7.35
2022-11-30T06:58:06.946Z,7.32
2022-11-30T06:58:39.033Z,7.34
2022-11-30T06:59:11.107Z,7.31
2022-11-30T06:59:43.209Z,7.32
2022-11-30T07:00:15.298Z,7.31
2022-11-30T07:00:47.441Z,7.32
2022-11-30T07:01:19.621Z,7.31
2022-11-30T07:01:51.616Z,7.31
2022-11-30T07:02:23.716Z,7.31
2022-11-30T07:02:55.835Z,7.31
2022-11-30T07:03:27.923Z,7.29
2022-11-30T07:04:00.229Z,7.31
2022-11-30T07:04:32.313Z,7.31
2022-11-30T07:05:04.333Z,7.31
2022-11-30T07:05:36.467Z,7.32
2022-11-30T07:06:08.605Z,7.32
2022-11-30T07:06:40.920Z,7.32
2022-11-30T07:07:13.067Z,7.32
2022-11-30T07:07:45.182Z,7.32
2022-11-30T07:08:17.266Z,7.34
2022-11-30T07:08:49.365Z,7.34